createdAt,value
2018-06-01T04:27:23.663Z,15.72
2018-06-01T04:29:51.314Z,15.83
2018-06-01T04:32:18.818Z,15.94
2018-06-01T04:34:46.319Z,16.03
2018-06-01T04:37:13.822Z,16.12
2018-06-01T04:39:41.359Z,16.19
2018-06-01T04:42:08.929Z,16.22
2018-06-01T04:44:36.452Z,16.29
2018-06-01T04:47:03.962Z,16.35
2018-06-01T04:49:31.442Z,16.41
2018-06-01T04:51:58.932Z,16.49
2018-06-01T04:54:26.478Z,16.54
2018-06-01T04:56:54.041Z,16.63
2018-06-01T04:59:21.547Z,16.67
2018-06-01T05:01:49.052Z,16.80
2018-06-01T05:04:16.556Z,16.87
2018-06-01T05:06:44.085Z,16.97
2018-06-01T05:09:11.615Z,17.07
2018-06-01T05:11:39.161Z,17.04
2018-06-01T05:14:06.663Z,17.12
2018-06-01T05:16:34.214Z,17.21
2018-06-01T05:19:01.691Z,17.18
2018-06-01T05:21:29.195Z,17.18
2018-06-01T05:23:56.700Z,17.32
2018-06-01T05:26:24.243Z,17.46
2018-06-01T05:28:51.756Z,17.51
2018-06-01T05:31:19.266Z,17.59
2018-06-01T05:33:46.767Z,17.67
2018-06-01T05:36:14.267Z,17.75
2018-06-01T05:38:41.781Z,17.84
2018-06-01T05:41:09.283Z,17.88
2018-06-01T05:43:36.775Z,18.01
2018-06-01T05:46:04.399Z,18.10
2018-06-01T05:48:31.909Z,18.14
2018-06-01T05:50:59.695Z,18.25
2018-06-01T05:53:27.185Z,18.36
2018-06-01T05:55:54.683Z,18.44
2018-06-01T05:58:22.188Z,18.53
2018-06-01T06:00:49.698Z,18.60
2018-06-01T06:03:17.193Z,18.69
2018-06-01T06:05:44.708Z,18.78
2018-06-01T06:08:12.384Z,18.93
2018-06-01T06:10:39.893Z,19.04
2018-06-01T06:13:07.404Z,19.04
2018-06-01T06:15:34.927Z,19.14
2018-06-01T06:18:02.433Z,19.30
2018-06-01T06:20:30.004Z,19.42
2018-06-01T06:22:57.554Z,19.52
2018-06-01T06:25:25.051Z,19.44
2018-06-01T06:27:52.547Z,19.49
2018-06-01T06:30:20.051Z,19.60
2018-06-01T06:32:47.552Z,19.75
2018-06-01T06:35:15.056Z,19.88
2018-06-01T06:37:42.555Z,19.95
2018-06-01T06:40:10.059Z,19.95
2018-06-01T06:42:37.600Z,19.94
2018-06-01T06:45:05.104Z,20.06
2018-06-01T06:47:32.595Z,20.23
2018-06-01T06:50:00.125Z,20.29
2018-06-01T06:52:27.631Z,20.41
2018-06-01T06:54:55.130Z,20.53
2018-06-01T06:57:22.641Z,20.58
2018-06-01T06:59:50.166Z,20.65
2018-06-01T07:02:17.679Z,20.68
2018-06-01T07:04:45.192Z,20.79
2018-06-01T07:07:12.688Z,20.88
2018-06-01T07:09:40.200Z,21.00
2018-06-01T07:12:07.725Z,21.12
2018-06-01T07:14:35.228Z,21.29
2018-06-01T07:17:02.732Z,21.39
2018-06-01T07:19:30.238Z,21.55
2018-06-01T07:21:57.737Z,21.51
2018-06-01T07:24:25.234Z,21.71
2018-06-01T07:26:52.767Z,21.79
2018-06-01T07:29:20.268Z,21.86
2018-06-01T07:31:47.781Z,21.85
2018-06-01T07:34:15.286Z,22.05
2018-06-01T07:36:42.819Z,22.17
2018-06-01T07:39:10.351Z,22.20
2018-06-01T07:41:37.873Z,22.37
2018-06-01T07:44:05.366Z,22.49
2018-06-01T07:46:32.871Z,22.51
2018-06-01T07:49:00.381Z,22.69
2018-06-01T07:51:27.886Z,22.80
2018-06-01T07:53:55.388Z,22.94
2018-06-01T07:56:22.904Z,22.93
2018-06-01T07:58:50.409Z,23.11
2018-06-01T08:01:17.950Z,23.26
2018-06-01T08:03:45.458Z,23.42
2018-06-01T08:06:12.998Z,23.54
2018-06-01T08:08:40.530Z,23.64
2018-06-01T08:11:08.022Z,23.74
2018-06-01T08:13:35.566Z,23.79
2018-06-01T08:16:03.058Z,24.03
2018-06-01T08:18:30.573Z,24.12
2018-06-01T08:20:58.088Z,24.31
2018-06-01T08:23:25.612Z,24.44
2018-06-01T08:25:53.115Z,24.55
2018-06-01T08:28:20.625Z,24.78
2018-06-01T08:30:48.157Z,24.79
2018-06-01T08:33:15.765Z,24.85
2018-06-01T08:35:43.315Z,24.91
2018-06-01T08:38:10.820Z,25.07
2018-06-01T08:40:38.330Z,25.18
2018-06-01T08:43:05.847Z,25.27
2018-06-01T08:45:33.350Z,25.33
2018-06-01T08:48:00.885Z,25.37
2018-06-01T08:50:28.383Z,25.38
2018-06-01T08:52:55.888Z,25.50
2018-06-01T08:55:23.387Z,25.62
2018-06-01T08:57:50.880Z,25.71
2018-06-01T09:00:18.416Z,25.84
2018-06-01T09:02:45.944Z,26.00
2018-06-01T09:05:13.610Z,26.09
2018-06-01T09:07:41.158Z,26.28
2018-06-01T09:10:08.729Z,26.17
2018-06-01T09:12:36.243Z,26.31
2018-06-01T09:15:03.737Z,26.45
2018-06-01T09:17:31.233Z,26.60
2018-06-01T09:19:58.779Z,26.68
2018-06-01T09:22:26.322Z,26.80
2018-06-01T09:24:53.864Z,26.82
2018-06-01T09:27:21.383Z,26.81
2018-06-01T09:29:48.888Z,26.84
2018-06-01T09:32:16.393Z,26.76
2018-06-01T09:34:43.977Z,26.80
2018-06-01T09:37:11.476Z,26.87
2018-06-01T09:39:39.015Z,26.88
2018-06-01T09:42:06.519Z,26.91
2018-06-01T09:44:34.056Z,26.99
2018-06-01T09:47:01.584Z,27.24
2018-06-01T09:49:29.110Z,27.19
2018-06-01T09:51:56.642Z,27.30
2018-06-01T09:54:24.179Z,27.52
2018-06-01T09:56:51.696Z,27.60
2018-06-01T09:59:19.198Z,27.54
2018-06-01T10:01:46.696Z,27.59
2018-06-01T10:04:14.186Z,27.64
2018-06-01T10:06:41.684Z,27.72
2018-06-01T10:09:09.553Z,27.73
2018-06-01T10:11:37.784Z,27.67
2018-06-01T10:14:09.050Z,27.79
2018-06-01T10:16:38.520Z,27.57
2018-06-01T10:19:06.520Z,27.76
2018-06-01T10:21:34.028Z,27.59
2018-06-01T10:24:01.553Z,27.65
2018-06-01T10:26:29.111Z,27.88
2018-06-01T10:28:56.618Z,28.11
2018-06-01T10:31:24.119Z,28.29
2018-06-01T10:33:51.609Z,28.41
2018-06-01T10:36:19.156Z,28.38
2018-06-01T10:38:46.652Z,28.22
2018-06-01T10:41:14.153Z,28.09
2018-06-01T10:43:41.711Z,28.07
2018-06-01T10:46:09.228Z,28.41
2018-06-01T10:48:36.741Z,28.53
2018-06-01T10:51:04.264Z,28.77
2018-06-01T10:53:31.758Z,29.05
2018-06-01T10:55:59.363Z,29.44
2018-06-01T10:58:26.860Z,29.65
2018-06-01T11:00:54.422Z,29.92
2018-06-01T11:03:21.915Z,30.29
2018-06-01T11:05:49.431Z,30.69
2018-06-01T11:08:16.934Z,30.89
2018-06-01T11:10:44.496Z,31.05
2018-06-01T11:13:12.012Z,31.35
2018-06-01T11:15:39.514Z,31.62
2018-06-01T11:18:07.017Z,32.31
2018-06-01T11:20:34.516Z,32.76
2018-06-01T11:23:02.015Z,33.17
2018-06-01T11:25:29.542Z,32.98
2018-06-01T11:27:57.048Z,33.34
2018-06-01T11:30:24.595Z,33.64
2018-06-01T11:32:52.095Z,33.75
2018-06-01T11:35:19.612Z,33.83
2018-06-01T11:37:47.107Z,33.86
2018-06-01T11:40:14.600Z,33.55
2018-06-01T11:42:42.108Z,34.08
2018-06-01T11:45:09.639Z,33.91
2018-06-01T11:47:37.175Z,34.26
2018-06-01T11:50:04.743Z,34.51
2018-06-01T11:52:32.253Z,34.39
2018-06-01T11:54:59.789Z,34.75
2018-06-01T11:57:27.402Z,34.68
2018-06-01T11:59:54.902Z,34.57
2018-06-01T12:02:22.418Z,34.46
2018-06-01T12:04:49.914Z,33.94
2018-06-01T12:07:17.406Z,34.37
2018-06-01T12:09:44.924Z,34.51
2018-06-01T12:12:12.470Z,34.93
2018-06-01T12:14:40.017Z,34.74
2018-06-01T12:17:07.523Z,35.05
2018-06-01T12:19:35.053Z,35.20
2018-06-01T12:22:02.564Z,35.02
2018-06-01T12:24:30.068Z,35.03
2018-06-01T12:26:57.571Z,35.31
2018-06-01T12:29:25.129Z,35.62
2018-06-01T12:31:52.594Z,35.64
2018-06-01T12:34:20.136Z,35.57
2018-06-01T12:36:47.636Z,35.70
2018-06-01T12:39:15.127Z,35.03
2018-06-01T12:41:42.636Z,35.30
2018-06-01T12:44:10.188Z,35.38
2018-06-01T12:46:37.702Z,35.41
2018-06-01T12:49:05.209Z,35.68
2018-06-01T12:51:32.707Z,35.17
2018-06-01T12:54:00.203Z,35.37
2018-06-01T12:56:27.739Z,35.88
2018-06-01T12:58:55.240Z,35.44
2018-06-01T13:01:22.749Z,35.90
2018-06-01T13:03:50.240Z,35.92
2018-06-01T13:06:17.814Z,36.20
2018-06-01T13:08:45.312Z,36.35
2018-06-01T13:11:12.850Z,36.40
2018-06-01T13:13:40.350Z,36.25
2018-06-01T13:16:07.846Z,36.10
2018-06-01T13:18:35.350Z,35.36
2018-06-01T13:21:02.906Z,34.54
2018-06-01T13:23:30.407Z,33.89
2018-06-01T13:25:57.984Z,33.66
2018-06-01T13:28:25.491Z,33.86
2018-06-01T13:30:53.045Z,33.46
2018-06-01T13:33:20.557Z,33.16
2018-06-01T13:35:48.098Z,33.44
2018-06-01T13:38:15.600Z,34.16
2018-06-01T13:40:43.104Z,34.80
2018-06-01T13:43:10.626Z,35.25
2018-06-01T13:45:38.122Z,35.26
2018-06-01T13:48:05.669Z,35.42
2018-06-01T13:50:33.206Z,35.39
2018-06-01T13:53:01.455Z,35.37
2018-06-01T13:55:28.953Z,35.43
2018-06-01T13:57:56.451Z,35.78
2018-06-01T14:00:24.024Z,35.45
2018-06-01T14:02:51.528Z,35.10
2018-06-01T14:05:19.027Z,34.24
2018-06-01T14:07:47.311Z,33.92
2018-06-01T14:10:14.855Z,33.05
2018-06-01T14:12:42.350Z,32.63
2018-06-01T14:15:09.845Z,32.26
2018-06-01T14:17:37.367Z,32.56
2018-06-01T14:20:04.895Z,32.97
2018-06-01T14:22:32.454Z,33.54
2018-06-01T14:25:00.056Z,33.95
2018-06-01T14:27:27.556Z,34.45
2018-06-01T14:29:55.060Z,34.89
2018-06-01T14:32:22.559Z,35.56
2018-06-01T14:34:50.062Z,35.82
2018-06-01T14:37:17.562Z,35.95
2018-06-01T14:39:45.072Z,35.65
2018-06-01T14:42:12.580Z,35.77
2018-06-01T14:44:40.076Z,35.87
2018-06-01T14:47:07.675Z,36.29
2018-06-01T14:49:35.078Z,36.31
2018-06-01T14:52:02.647Z,36.13
2018-06-01T14:54:30.265Z,36.00
2018-06-01T14:56:57.782Z,35.84
2018-06-01T14:59:25.319Z,36.01
2018-06-01T15:01:52.864Z,35.98
2018-06-01T15:04:20.344Z,36.20
2018-06-01T15:06:47.850Z,36.35
2018-06-01T15:09:15.362Z,36.56
2018-06-01T15:11:42.959Z,36.19
2018-06-01T15:14:10.479Z,35.83
2018-06-01T15:16:38.032Z,35.03
2018-06-01T15:19:05.540Z,33.81
2018-06-01T15:21:33.033Z,33.31
2018-06-01T15:24:00.527Z,32.64
2018-06-01T15:26:28.046Z,32.24
2018-06-01T15:28:55.562Z,32.00
2018-06-01T15:31:23.090Z,31.73
2018-06-01T15:33:50.641Z,31.61
2018-06-01T15:36:18.200Z,31.35
2018-06-01T15:38:45.712Z,31.19
2018-06-01T15:41:13.268Z,31.32
2018-06-01T15:43:41.439Z,31.77
2018-06-01T15:46:08.970Z,32.40
2018-06-01T15:48:36.525Z,32.93
2018-06-01T15:51:04.044Z,32.86
2018-06-01T15:53:31.695Z,32.47
2018-06-01T15:55:59.257Z,32.05
2018-06-01T15:58:26.761Z,31.72
2018-06-01T16:00:54.309Z,31.45
2018-06-01T16:03:21.838Z,31.09
2018-06-01T16:05:49.348Z,30.94
2018-06-01T16:08:16.899Z,30.82
2018-06-01T16:10:44.377Z,30.46
2018-06-01T16:13:11.904Z,30.31
2018-06-01T16:15:39.408Z,30.26
2018-06-01T16:18:06.971Z,30.36
2018-06-01T16:20:34.509Z,30.57
2018-06-01T16:23:02.022Z,30.98
2018-06-01T16:25:29.525Z,31.21
2018-06-01T16:27:57.038Z,31.21
2018-06-01T16:30:25.313Z,31.57
2018-06-01T16:32:52.825Z,31.82
2018-06-01T16:35:20.421Z,31.99
2018-06-01T16:37:48.667Z,32.02
2018-06-01T16:40:18.799Z,31.86
2018-06-01T16:42:46.318Z,31.85
2018-06-01T16:45:13.891Z,31.88
2018-06-01T16:47:41.400Z,31.90
2018-06-01T16:50:08.910Z,32.22
2018-06-01T16:52:36.405Z,32.03
2018-06-01T16:55:03.967Z,32.26
2018-06-01T16:57:31.514Z,31.94
2018-06-01T16:59:59.066Z,31.90
2018-06-01T17:02:26.571Z,31.52
2018-06-01T17:04:54.157Z,31.37
2018-06-01T17:07:21.671Z,30.78
2018-06-01T17:09:49.176Z,30.31
2018-06-01T17:12:16.683Z,30.07
2018-06-01T17:14:44.224Z,29.96
2018-06-01T17:17:11.772Z,29.88
2018-06-01T17:19:39.328Z,29.58
2018-06-01T17:22:06.827Z,29.57
2018-06-01T17:24:34.338Z,29.34
2018-06-01T17:27:01.888Z,29.16
2018-06-01T17:29:29.501Z,28.99
2018-06-01T17:31:57.021Z,28.81
2018-06-01T17:34:24.558Z,28.55
2018-06-01T17:36:52.094Z,28.37
2018-06-01T17:39:19.591Z,28.18
2018-06-01T17:41:47.088Z,28.14
2018-06-01T17:44:14.644Z,28.08
2018-06-01T17:46:42.127Z,27.97
2018-06-01T17:49:09.636Z,27.77
2018-06-01T17:51:37.152Z,27.74
2018-06-01T17:54:04.710Z,27.65
2018-06-01T17:56:32.310Z,27.44
2018-06-01T17:58:59.877Z,27.37
2018-06-01T18:01:28.296Z,27.26
2018-06-01T18:03:55.795Z,27.22
2018-06-01T18:06:23.295Z,27.08
2018-06-01T18:08:50.830Z,26.94
2018-06-01T18:11:18.370Z,26.96
2018-06-01T18:13:45.919Z,26.97
2018-06-01T18:16:13.431Z,26.96
2018-06-01T18:18:40.935Z,26.86
2018-06-01T18:21:08.518Z,26.77
2018-06-01T18:23:36.032Z,26.73
2018-06-01T18:26:03.560Z,26.66
2018-06-01T18:28:31.054Z,26.42
2018-06-01T18:30:58.574Z,26.38
2018-06-01T18:33:26.130Z,26.22
2018-06-01T18:35:53.646Z,26.22
2018-06-01T18:38:21.155Z,26.10
2018-06-01T18:40:48.706Z,26.05
2018-06-01T18:43:16.256Z,25.95
2018-06-01T18:45:43.792Z,25.92
2018-06-01T18:48:12.135Z,25.85
2018-06-01T18:50:39.647Z,25.78
2018-06-01T18:53:07.158Z,25.74
2018-06-01T18:55:34.660Z,25.65
2018-06-01T18:58:02.203Z,25.66
2018-06-01T19:00:29.735Z,25.67
2018-06-01T19:02:57.234Z,25.62
2018-06-01T19:05:24.736Z,25.57
2018-06-01T19:07:52.398Z,25.47
2018-06-01T19:10:19.904Z,25.31
2018-06-01T19:12:47.412Z,25.29
2018-06-01T19:15:14.929Z,25.20
2018-06-01T19:17:42.431Z,25.08
2018-06-01T19:20:10.821Z,24.87
2018-06-01T19:22:38.328Z,24.79
2018-06-01T19:25:05.897Z,24.73
2018-06-01T19:27:33.436Z,24.60
2018-06-01T19:30:00.956Z,24.51
2018-06-01T19:32:28.469Z,24.43
2018-06-01T19:34:56.083Z,24.31
2018-06-01T19:37:24.548Z,24.23
2018-06-01T19:39:52.098Z,24.23
2018-06-01T19:42:19.632Z,24.15
2018-06-01T19:44:47.182Z,24.11
2018-06-01T19:47:14.732Z,24.09
2018-06-01T19:49:42.235Z,23.97
2018-06-01T19:52:09.811Z,23.81
2018-06-01T19:54:37.326Z,23.78
2018-06-01T19:57:04.855Z,23.75
2018-06-01T19:59:32.468Z,23.67
2018-06-01T20:01:59.995Z,23.61
2018-06-01T20:04:28.609Z,23.58
2018-06-01T20:06:56.516Z,23.54
2018-06-01T20:09:25.308Z,23.43
2018-06-01T20:11:54.056Z,23.38
2018-06-01T20:14:21.681Z,23.36
2018-06-01T20:16:49.221Z,23.31
2018-06-01T20:19:16.743Z,23.25
2018-06-01T20:21:46.424Z,23.24
2018-06-01T20:24:13.998Z,23.15
2018-06-01T20:26:42.627Z,23.12
2018-06-01T20:29:10.504Z,23.10
2018-06-01T20:31:38.004Z,23.00
2018-06-01T20:34:05.525Z,22.97
2018-06-01T20:36:33.032Z,22.96
2018-06-01T20:39:00.563Z,22.94
2018-06-01T20:41:28.059Z,22.93
2018-06-01T20:43:55.775Z,22.95
2018-06-01T20:46:23.314Z,22.92
2018-06-01T20:48:50.836Z,22.89
2018-06-01T20:51:18.364Z,22.82
2018-06-01T20:53:45.858Z,22.76
2018-06-01T20:56:13.492Z,22.74
2018-06-01T20:58:41.015Z,22.61
2018-06-01T21:01:08.523Z,22.64
2018-06-01T21:03:36.043Z,22.65
2018-06-01T21:06:03.609Z,22.58
2018-06-01T21:08:31.119Z,22.60
2018-06-01T21:10:58.631Z,22.64
2018-06-01T21:13:26.128Z,22.65
2018-06-01T21:15:53.645Z,22.57
2018-06-01T21:18:21.181Z,22.54
2018-06-01T21:20:48.684Z,22.59
2018-06-01T21:23:16.182Z,22.52
2018-06-01T21:25:43.703Z,22.42
2018-06-01T21:28:11.207Z,22.37
2018-06-01T21:30:38.784Z,22.35
2018-06-01T21:33:06.296Z,22.28
2018-06-01T21:35:33.836Z,22.31
2018-06-01T21:38:01.360Z,22.24
2018-06-01T21:40:28.915Z,22.15
2018-06-01T21:42:57.344Z,22.16
2018-06-01T21:45:24.867Z,21.97
2018-06-01T21:47:52.382Z,22.02
2018-06-01T21:50:19.900Z,22.03
2018-06-01T21:52:47.395Z,22.03
2018-06-01T21:55:14.967Z,21.99
2018-06-01T21:57:42.502Z,21.92
2018-06-01T22:00:10.143Z,21.77
2018-06-01T22:02:37.654Z,21.66
2018-06-01T22:05:05.991Z,21.64
2018-06-01T22:07:33.507Z,21.61
2018-06-01T22:10:01.063Z,21.51
2018-06-01T22:12:28.661Z,21.53
2018-06-01T22:14:56.176Z,21.52
2018-06-01T22:17:23.811Z,21.54
2018-06-01T22:19:51.363Z,21.53
2018-06-01T22:22:18.926Z,21.48
2018-06-01T22:24:46.454Z,21.43
2018-06-01T22:27:13.998Z,21.37
2018-06-01T22:29:41.541Z,21.34
2018-06-01T22:32:09.114Z,21.36
2018-06-01T22:34:36.657Z,21.40
2018-06-01T22:37:04.201Z,21.31
2018-06-01T22:39:31.721Z,21.33
2018-06-01T22:41:59.233Z,21.18
2018-06-01T22:44:26.800Z,21.03
2018-06-01T22:46:54.317Z,20.83
2018-06-01T22:49:21.835Z,20.78
2018-06-01T22:51:49.374Z,20.70
2018-06-01T22:54:16.904Z,20.59
2018-06-01T22:56:44.416Z,20.47
2018-06-01T22:59:11.937Z,20.39
2018-06-01T23:01:39.460Z,20.31
2018-06-01T23:04:06.966Z,20.29
2018-06-01T23:06:34.468Z,20.31
2018-06-01T23:09:01.974Z,20.33
2018-06-01T23:11:29.524Z,20.20
2018-06-01T23:13:57.036Z,20.11
2018-06-01T23:16:24.531Z,20.16
2018-06-01T23:18:52.069Z,20.06
2018-06-01T23:21:19.568Z,20.00
2018-06-01T23:23:47.120Z,19.88
2018-06-01T23:26:14.615Z,19.91
2018-06-01T23:28:42.110Z,19.99
2018-06-01T23:31:09.794Z,20.00
2018-06-01T23:33:37.328Z,20.07
2018-06-01T23:36:04.828Z,20.17
2018-06-01T23:38:32.328Z,20.27
2018-06-01T23:40:59.841Z,20.28
2018-06-01T23:43:27.352Z,20.32
2018-06-01T23:45:54.873Z,20.36
2018-06-01T23:48:22.387Z,20.42
2018-06-01T23:53:26.996Z,20.43
2018-06-01T23:55:54.510Z,20.45
2018-06-01T23:58:22.032Z,20.41
